Disney Magic — C6PT7 — position and weather

sailwx.info

Track history (hours):
 
Tides and Currents Weather Stations Pressure Air Temp Water Temp Dewpoint Dewpoint Depression Visibility Wind Speed Wind Dir Waves Ship Positions

Disney Magic

Last reported at 2015-Jul-06 06:00 UTC. Time now 2015-Jul-07 02:25 UTC.
Position N 66°24' W 020°48'.

Type: Passenger vessel. MMSI: 308516000.

Wind from 040 at 25 knots

Waves 2.0 meters (7 feet), 6 second period

Barometer 1023.4 mb
Air temperature 9.0 ° C
Visibility: greater than 5.4 NM
Dewpoint 7.1 ° C
Water temperature 7.0 ° C

Date/timePositionNaut miles runAvg speedWind from/ knotsBaromVisibWave heightAir tempDewpointWater temp
2015-Jul-06 06:00N 66°24' W 020°48'13511.3 040 / 251023.4 5.4 2.0 9.0 7.1 7.0
2015-Jul-05 18:05N 64°13' W 022°05'712.9
2015-Jul-05 17:33N 64°09' W 021°52'0 0.0
2015-Jul-04 12:12N 64°09' W 021°52'4 6.1
2015-Jul-04 11:33N 64°11' W 021°59'25215.2
2015-Jul-03 19:00N 61°54' W 014°12'3316.7 130 / 101023.310.8 0.517.011.911.0
2015-Jul-03 17:00N 61°42' W 013°06'25221.0 180 / 121023.310.8 0.517.011.911.0
2015-Jul-03 05:00N 60°06' W 005°06'9045.2 240 / 91022.410.8 0.513.011.312.0
2015-Jul-03 03:00N 58°48' W 003°36'24519.6 270 / 91022.410.8 0.512.010.212.0
2015-Jul-02 14:28N 58°58' E 004°18'1719.1
2015-Jul-02 13:33N 58°60' E 004°51'1919.0
2015-Jul-02 12:33N 59°07' E 005°26'1312.8
2015-Jul-02 11:33N 58°58' E 005°44'0 0.0
2015-Jul-02 10:22N 58°58' E 005°44'0 0.0
2015-Jul-02 09:31N 58°58' E 005°44'0 0.0
2015-Jul-02 08:31N 58°58' E 005°44'0 0.0
2015-Jul-02 07:31N 58°58' E 005°44'0 0.0
2015-Jul-02 06:31N 58°58' E 005°44'0 0.0
2015-Jul-02 05:28N 58°58' E 005°44'0 0.2
2015-Jul-02 04:33N 58°59' E 005°44'6 6.0
2015-Jul-02 03:34N 59°00' E 005°33'1211.9
2015-Jul-02 02:33N 58°49' E 005°26'7 6.8
2015-Jul-02 01:33N 58°42' E 005°22'8 7.8
2015-Jul-02 00:33N 58°35' E 005°23'9 9.1
2015-Jul-01 23:33N 58°26' E 005°21'9 9.5
2015-Jul-01 22:33N 58°18' E 005°31'8313.7
2015-Jul-01 16:28N 57°51' E 008°00'12 1.0
2015-Jul-01 04:14N 58°01' E 008°13'6 9.2
2015-Jul-01 03:33N 57°58' E 008°24'8 8.2
2015-Jul-01 02:33N 57°60' E 008°39'9 9.2
2015-Jul-01 01:33N 58°05' E 008°53'9 9.2
2015-Jul-01 00:33N 58°12' E 009°04'1010.5
2015-Jun-30 23:34N 58°20' E 009°17'1817.8
2015-Jun-30 22:34N 58°33' E 009°40'1817.8
2015-Jun-30 21:34N 58°46' E 010°04'1818.2
2015-Jun-30 20:34N 58°58' E 010°29'1515.1
2015-Jun-30 19:33N 59°13' E 010°37'1817.8
2015-Jun-30 18:33N 59°31' E 010°34'24 2.2
2015-Jun-30 07:30N 59°54' E 010°44'1211.6
2015-Jun-30 06:28N 59°43' E 010°35'1516.0
2015-Jun-30 05:33N 59°29' E 010°34'1817.5
2015-Jun-30 04:33N 59°11' E 010°39'1413.9
2015-Jun-30 03:33N 58°57' E 010°35'1616.1
2015-Jun-30 02:33N 58°41' E 010°34'1717.2
2015-Jun-30 01:33N 58°24' E 010°38'1817.9
2015-Jun-30 00:33N 58°06' E 010°41'1717.2
2015-Jun-29 23:33N 57°49' E 010°46'1616.0
2015-Jun-29 22:33N 57°38' E 011°07'1616.5
2015-Jun-29 21:33N 57°26' E 011°28'2019.8
2015-Jun-29 20:33N 57°07' E 011°40'2019.9
2015-Jun-29 19:33N 56°48' E 011°53'2020.3
2015-Jun-29 18:33N 56°29' E 012°01'1919.0
2015-Jun-29 17:33N 56°13' E 012°19'1716.7
2015-Jun-29 16:33N 56°01' E 012°41'1515.3
2015-Jun-29 15:33N 55°46' E 012°41'3 3.4
2015-Jun-29 14:32N 55°43' E 012°37'0 0.0
2015-Jun-29 13:32N 55°43' E 012°37'0 0.0
2015-Jun-29 12:32N 55°43' E 012°37'0 0.0
2015-Jun-29 11:32N 55°43' E 012°37'0 0.0
2015-Jun-29 10:32N 55°43' E 012°37'0 0.0
2015-Jun-29 09:32N 55°43' E 012°37'0 0.0
2015-Jun-29 08:32N 55°43' E 012°37'0 0.0
2015-Jun-29 07:32N 55°43' E 012°37'0 0.0
2015-Jun-29 06:32N 55°43' E 012°37'0 0.0
2015-Jun-29 05:32N 55°43' E 012°37'0 0.0
2015-Jun-29 04:32N 55°43' E 012°37'3 2.6
2015-Jun-29 03:34N 55°45' E 012°40'1615.8
2015-Jun-29 02:34N 56°01' E 012°40'1313.0
2015-Jun-29 01:33N 56°10' E 012°24'10 9.6
2015-Jun-29 00:33N 56°15' E 012°09'9 8.5
2015-Jun-28 23:33N 56°22' E 012°00'10 9.9
2015-Jun-28 22:33N 56°32' E 011°57'1010.2
2015-Jun-28 21:33N 56°42' E 011°53'1010.4
2015-Jun-28 20:33N 56°51' E 011°48'10 9.9
2015-Jun-28 19:33N 57°01' E 011°41'1010.1
2015-Jun-28 18:33N 57°10' E 011°34'1110.5
2015-Jun-28 17:33N 57°20' E 011°28'1312.7
2015-Jun-28 16:33N 57°31' E 011°16'1817.7
2015-Jun-28 15:33N 57°43' E 010°52'1716.5
2015-Jun-28 14:32N 57°48' E 010°22'14616.0
2015-Jun-28 05:24N 58°05' E 005°48'1517.5
2015-Jun-28 04:32N 58°15' E 005°26'3817.9
2015-Jun-28 02:25N 58°42' E 004°35'  
Track history (hours):
 
Tides and Currents Weather Stations Pressure Air Temp Water Temp Dewpoint Dewpoint Depression Visibility Wind Speed Wind Dir Waves Ship Positions

Disney Magic

Last reported at 2015-Jul-06 06:00 UTC. Time now 2015-Jul-07 02:25 UTC.
Position N 66°24' W 020°48'.

Type: Passenger vessel. MMSI: 308516000.

Wind from 040 at 25 knots

Waves 2.0 meters (7 feet), 6 second period

Barometer 1023.4 mb
Air temperature 9.0 ° C
Visibility: greater than 5.4 NM
Dewpoint 7.1 ° C
Water temperature 7.0 ° C

Date/timePositionNaut miles runAvg speedWind from/ knotsBaromVisibWave heightAir tempDewpointWater temp
2015-Jul-06 06:00N 66°24' W 020°48'13511.3 040 / 251023.4 5.4 2.0 9.0 7.1 7.0
2015-Jul-05 18:05N 64°13' W 022°05'712.9
2015-Jul-05 17:33N 64°09' W 021°52'0 0.0
2015-Jul-04 12:12N 64°09' W 021°52'4 6.1
2015-Jul-04 11:33N 64°11' W 021°59'25215.2
2015-Jul-03 19:00N 61°54' W 014°12'3316.7 130 / 101023.310.8 0.517.011.911.0
2015-Jul-03 17:00N 61°42' W 013°06'25221.0 180 / 121023.310.8 0.517.011.911.0
2015-Jul-03 05:00N 60°06' W 005°06'9045.2 240 / 91022.410.8 0.513.011.312.0
2015-Jul-03 03:00N 58°48' W 003°36'24519.6 270 / 91022.410.8 0.512.010.212.0
2015-Jul-02 14:28N 58°58' E 004°18'1719.1
2015-Jul-02 13:33N 58°60' E 004°51'1919.0
2015-Jul-02 12:33N 59°07' E 005°26'1312.8
2015-Jul-02 11:33N 58°58' E 005°44'0 0.0
2015-Jul-02 10:22N 58°58' E 005°44'0 0.0
2015-Jul-02 09:31N 58°58' E 005°44'0 0.0
2015-Jul-02 08:31N 58°58' E 005°44'0 0.0
2015-Jul-02 07:31N 58°58' E 005°44'0 0.0
2015-Jul-02 06:31N 58°58' E 005°44'0 0.0
2015-Jul-02 05:28N 58°58' E 005°44'0 0.2
2015-Jul-02 04:33N 58°59' E 005°44'6 6.0
2015-Jul-02 03:34N 59°00' E 005°33'1211.9
2015-Jul-02 02:33N 58°49' E 005°26'7 6.8
2015-Jul-02 01:33N 58°42' E 005°22'8 7.8
2015-Jul-02 00:33N 58°35' E 005°23'9 9.1
2015-Jul-01 23:33N 58°26' E 005°21'9 9.5
2015-Jul-01 22:33N 58°18' E 005°31'8313.7
2015-Jul-01 16:28N 57°51' E 008°00'12 1.0
2015-Jul-01 04:14N 58°01' E 008°13'6 9.2
2015-Jul-01 03:33N 57°58' E 008°24'8 8.2
2015-Jul-01 02:33N 57°60' E 008°39'9 9.2
2015-Jul-01 01:33N 58°05' E 008°53'9 9.2
2015-Jul-01 00:33N 58°12' E 009°04'1010.5
2015-Jun-30 23:34N 58°20' E 009°17'1817.8
2015-Jun-30 22:34N 58°33' E 009°40'1817.8
2015-Jun-30 21:34N 58°46' E 010°04'1818.2
2015-Jun-30 20:34N 58°58' E 010°29'1515.1
2015-Jun-30 19:33N 59°13' E 010°37'1817.8
2015-Jun-30 18:33N 59°31' E 010°34'24 2.2
2015-Jun-30 07:30N 59°54' E 010°44'1211.6
2015-Jun-30 06:28N 59°43' E 010°35'1516.0
2015-Jun-30 05:33N 59°29' E 010°34'1817.5
2015-Jun-30 04:33N 59°11' E 010°39'1413.9
2015-Jun-30 03:33N 58°57' E 010°35'1616.1
2015-Jun-30 02:33N 58°41' E 010°34'1717.2
2015-Jun-30 01:33N 58°24' E 010°38'1817.9
2015-Jun-30 00:33N 58°06' E 010°41'1717.2
2015-Jun-29 23:33N 57°49' E 010°46'1616.0
2015-Jun-29 22:33N 57°38' E 011°07'1616.5
2015-Jun-29 21:33N 57°26' E 011°28'2019.8
2015-Jun-29 20:33N 57°07' E 011°40'2019.9
2015-Jun-29 19:33N 56°48' E 011°53'2020.3
2015-Jun-29 18:33N 56°29' E 012°01'1919.0
2015-Jun-29 17:33N 56°13' E 012°19'1716.7
2015-Jun-29 16:33N 56°01' E 012°41'1515.3
2015-Jun-29 15:33N 55°46' E 012°41'3 3.4
2015-Jun-29 14:32N 55°43' E 012°37'0 0.0
2015-Jun-29 13:32N 55°43' E 012°37'0 0.0
2015-Jun-29 12:32N 55°43' E 012°37'0 0.0
2015-Jun-29 11:32N 55°43' E 012°37'0 0.0
2015-Jun-29 10:32N 55°43' E 012°37'0 0.0
2015-Jun-29 09:32N 55°43' E 012°37'0 0.0
2015-Jun-29 08:32N 55°43' E 012°37'0 0.0
2015-Jun-29 07:32N 55°43' E 012°37'0 0.0
2015-Jun-29 06:32N 55°43' E 012°37'0 0.0
2015-Jun-29 05:32N 55°43' E 012°37'0 0.0
2015-Jun-29 04:32N 55°43' E 012°37'3 2.6
2015-Jun-29 03:34N 55°45' E 012°40'1615.8
2015-Jun-29 02:34N 56°01' E 012°40'1313.0
2015-Jun-29 01:33N 56°10' E 012°24'10 9.6
2015-Jun-29 00:33N 56°15' E 012°09'9 8.5
2015-Jun-28 23:33N 56°22' E 012°00'10 9.9
2015-Jun-28 22:33N 56°32' E 011°57'1010.2
2015-Jun-28 21:33N 56°42' E 011°53'1010.4
2015-Jun-28 20:33N 56°51' E 011°48'10 9.9
2015-Jun-28 19:33N 57°01' E 011°41'1010.1
2015-Jun-28 18:33N 57°10' E 011°34'1110.5
2015-Jun-28 17:33N 57°20' E 011°28'1312.7
2015-Jun-28 16:33N 57°31' E 011°16'1817.7
2015-Jun-28 15:33N 57°43' E 010°52'1716.5
2015-Jun-28 14:32N 57°48' E 010°22'14616.0
2015-Jun-28 05:24N 58°05' E 005°48'1517.5
2015-Jun-28 04:32N 58°15' E 005°26'3817.9
2015-Jun-28 02:25N 58°42' E 004°35'  

Dump ship's entire track history